Szecseny, Hungary
Current Conditions -  °F | °C
As of 2:30 PM on Monday 24 Nov 2014 (Local Time) from LZSL Reporting Station
Overcast Overcast  
Wind Chill: 37°   Ceiling: 2300
Heat Index: 37°   Visibility: 5mi
Dew Point: 32°   Wind: 0mph
Humidity: 81%   Direction: NA
Pressure: 30.33"   Gusts: NA
Location:  48.09°N, 19.53°E
Report Text: LZSL 241230Z 00000KT 8000 OVC023 03/00 Q1027
Loading
Personal Weather Stations






























Interactive Weather Map New forecast layout! Learn more

10-Day Weather Forecast

Advertisements
Track Severe Weather on mobile